sensor_id;sensor_type;location;lat;lon;timestamp;pressure;altitude;pressure_sealevel;temperature;humidity
52319;BME280;38258;51.148;14.068;2023-08-31T00:02:19;97445.44;;;10.79;100.00
52319;BME280;38258;51.148;14.068;2023-08-31T00:04:46;97449.59;;;10.83;100.00
52319;BME280;38258;51.148;14.068;2023-08-31T00:07:13;97446.06;;;10.84;100.00
52319;BME280;38258;51.148;14.068;2023-08-31T00:09:39;97451.88;;;10.91;100.00
52319;BME280;38258;51.148;14.068;2023-08-31T00:12:08;97445.28;;;10.82;100.00
52319;BME280;38258;51.148;14.068;2023-08-31T00:14:35;97448.78;;;11.02;100.00
52319;BME280;38258;51.148;14.068;2023-08-31T00:17:02;97452.72;;;11.11;100.00
52319;BME280;38258;51.148;14.068;2023-08-31T00:19:29;97449.66;;;11.22;100.00
52319;BME280;38258;51.148;14.068;2023-08-31T00:21:56;97454.66;;;11.26;100.00
52319;BME280;38258;51.148;14.068;2023-08-31T00:24:23;97457.63;;;11.38;100.00
52319;BME280;38258;51.148;14.068;2023-08-31T00:26:57;97455.41;;;11.48;100.00
52319;BME280;38258;51.148;14.068;2023-08-31T00:29:25;97457.75;;;11.54;100.00
52319;BME280;38258;51.148;14.068;2023-08-31T00:31:52;97453.69;;;11.66;100.00
52319;BME280;38258;51.148;14.068;2023-08-31T00:34:19;97470.56;;;11.60;100.00
52319;BME280;38258;51.148;14.068;2023-08-31T00:36:46;97473.09;;;11.81;100.00
52319;BME280;38258;51.148;14.068;2023-08-31T00:39:13;97479.59;;;11.91;100.00
52319;BME280;38258;51.148;14.068;2023-08-31T00:41:41;97487.56;;;11.88;100.00
52319;BME280;38258;51.148;14.068;2023-08-31T00:44:11;97488.34;;;11.90;100.00
52319;BME280;38258;51.148;14.068;2023-08-31T00:46:40;97488.44;;;11.88;100.00
52319;BME280;38258;51.148;14.068;2023-08-31T00:49:07;97495.16;;;11.94;100.00
52319;BME280;38258;51.148;14.068;2023-08-31T00:51:35;97494.94;;;11.99;100.00
52319;BME280;38258;51.148;14.068;2023-08-31T00:54:03;97503.38;;;12.06;100.00
52319;BME280;38258;51.148;14.068;2023-08-31T00:56:32;97497.59;;;12.16;100.00
52319;BME280;38258;51.148;14.068;2023-08-31T00:58:58;97498.22;;;12.22;100.00
52319;BME280;38258;51.148;14.068;2023-08-31T01:01:32;97504.31;;;12.22;100.00
52319;BME280;38258;51.148;14.068;2023-08-31T01:04:14;97500.22;;;12.16;100.00
52319;BME280;38258;51.148;14.068;2023-08-31T01:06:51;97491.59;;;11.95;100.00
52319;BME280;38258;51.148;14.068;2023-08-31T01:09:28;97502.53;;;11.86;100.00
52319;BME280;38258;51.148;14.068;2023-08-31T01:12:03;97505.50;;;11.78;100.00
52319;BME280;38258;51.148;14.068;2023-08-31T01:14:33;97499.09;;;11.66;100.00
52319;BME280;38258;51.148;14.068;2023-08-31T01:17:02;97503.81;;;11.58;100.00
52319;BME280;38258;51.148;14.068;2023-08-31T01:19:42;97491.28;;;11.65;100.00
52319;BME280;38258;51.148;14.068;2023-08-31T01:22:16;97483.59;;;11.42;100.00
52319;BME280;38258;51.148;14.068;2023-08-31T01:24:47;97476.78;;;11.19;100.00
52319;BME280;38258;51.148;14.068;2023-08-31T01:27:14;97473.41;;;11.17;100.00
52319;BME280;38258;51.148;14.068;2023-08-31T01:29:42;97478.41;;;11.02;100.00
52319;BME280;38258;51.148;14.068;2023-08-31T01:32:09;97471.75;;;10.95;100.00
52319;BME280;38258;51.148;14.068;2023-08-31T01:34:38;97477.59;;;10.81;100.00
52319;BME280;38258;51.148;14.068;2023-08-31T01:37:12;97475.25;;;10.75;100.00
52319;BME280;38258;51.148;14.068;2023-08-31T01:39:44;97481.22;;;10.58;100.00
52319;BME280;38258;51.148;14.068;2023-08-31T01:42:16;97472.34;;;10.41;100.00
52319;BME280;38258;51.148;14.068;2023-08-31T01:44:45;97468.19;;;10.36;100.00
52319;BME280;38258;51.148;14.068;2023-08-31T01:47:15;97460.91;;;10.22;100.00
52319;BME280;38258;51.148;14.068;2023-08-31T01:49:44;97467.06;;;10.21;100.00
52319;BME280;38258;51.148;14.068;2023-08-31T01:52:11;97469.66;;;10.21;100.00
52319;BME280;38258;51.148;14.068;2023-08-31T01:54:37;97464.56;;;10.17;100.00
52319;BME280;38258;51.148;14.068;2023-08-31T01:57:05;97470.84;;;10.13;100.00
52319;BME280;38258;51.148;14.068;2023-08-31T01:59:34;97462.41;;;10.07;100.00
52319;BME280;38258;51.148;14.068;2023-08-31T02:02:01;97464.56;;;10.17;100.00
52319;BME280;38258;51.148;14.068;2023-08-31T02:04:29;97458.09;;;10.26;100.00
52319;BME280;38258;51.148;14.068;2023-08-31T02:06:59;97460.09;;;10.42;100.00
52319;BME280;38258;51.148;14.068;2023-08-31T02:09:26;97457.16;;;10.50;100.00
52319;BME280;38258;51.148;14.068;2023-08-31T02:11:53;97468.06;;;10.59;100.00
52319;BME280;38258;51.148;14.068;2023-08-31T02:14:20;97467.63;;;10.70;100.00
52319;BME280;38258;51.148;14.068;2023-08-31T02:16:48;97470.00;;;10.75;100.00
52319;BME280;38258;51.148;14.068;2023-08-31T02:19:15;97480.13;;;10.83;100.00
52319;BME280;38258;51.148;14.068;2023-08-31T02:21:43;97483.69;;;11.01;100.00
52319;BME280;38258;51.148;14.068;2023-08-31T02:24:12;97481.97;;;11.21;100.00
52319;BME280;38258;51.148;14.068;2023-08-31T02:26:40;97490.66;;;11.40;100.00
52319;BME280;38258;51.148;14.068;2023-08-31T02:29:06;97492.44;;;11.40;100.00
52319;BME280;38258;51.148;14.068;2023-08-31T02:31:33;97497.41;;;11.46;100.00
52319;BME280;38258;51.148;14.068;2023-08-31T02:34:01;97495.41;;;11.51;100.00
52319;BME280;38258;51.148;14.068;2023-08-31T02:36:28;97497.75;;;11.57;100.00
52319;BME280;38258;51.148;14.068;2023-08-31T02:38:55;97503.66;;;11.61;100.00
52319;BME280;38258;51.148;14.068;2023-08-31T02:41:22;97492.16;;;11.65;100.00
52319;BME280;38258;51.148;14.068;2023-08-31T02:43:50;97499.66;;;11.54;100.00
52319;BME280;38258;51.148;14.068;2023-08-31T02:46:17;97497.31;;;11.67;100.00
52319;BME280;38258;51.148;14.068;2023-08-31T02:48:43;97502.47;;;11.68;100.00
52319;BME280;38258;51.148;14.068;2023-08-31T02:51:12;97500.13;;;11.81;100.00
52319;BME280;38258;51.148;14.068;2023-08-31T02:53:38;97506.34;;;11.98;100.00
52319;BME280;38258;51.148;14.068;2023-08-31T02:56:05;97508.31;;;12.12;100.00
52319;BME280;38258;51.148;14.068;2023-08-31T02:58:33;97520.34;;;12.16;100.00
52319;BME280;38258;51.148;14.068;2023-08-31T03:01:07;97520.19;;;12.19;100.00
52319;BME280;38258;51.148;14.068;2023-08-31T03:03:36;97521.66;;;12.25;100.00
52319;BME280;38258;51.148;14.068;2023-08-31T03:06:03;97522.69;;;12.22;100.00
52319;BME280;38258;51.148;14.068;2023-08-31T03:08:31;97522.38;;;12.28;100.00
52319;BME280;38258;51.148;14.068;2023-08-31T03:10:58;97529.41;;;12.28;100.00
52319;BME280;38258;51.148;14.068;2023-08-31T03:13:25;97535.41;;;12.30;100.00
52319;BME280;38258;51.148;14.068;2023-08-31T03:15:52;97533.13;;;12.41;100.00
52319;BME280;38258;51.148;14.068;2023-08-31T03:18:19;97539.50;;;12.36;100.00
52319;BME280;38258;51.148;14.068;2023-08-31T03:20:46;97535.41;;;12.30;100.00
52319;BME280;38258;51.148;14.068;2023-08-31T03:23:13;97548.38;;;12.33;100.00
52319;BME280;38258;51.148;14.068;2023-08-31T03:25:41;97543.88;;;12.35;100.00
52319;BME280;38258;51.148;14.068;2023-08-31T03:28:08;97547.44;;;12.34;100.00
52319;BME280;38258;51.148;14.068;2023-08-31T03:30:36;97552.91;;;12.29;100.00
52319;BME280;38258;51.148;14.068;2023-08-31T03:33:03;97562.56;;;12.29;100.00
52319;BME280;38258;51.148;14.068;2023-08-31T03:35:31;97564.06;;;12.15;100.00
52319;BME280;38258;51.148;14.068;2023-08-31T03:37:59;97565.97;;;12.12;100.00
52319;BME280;38258;51.148;14.068;2023-08-31T03:40:27;97570.66;;;12.05;100.00
52319;BME280;38258;51.148;14.068;2023-08-31T03:42:55;97561.28;;;11.99;100.00
52319;BME280;38258;51.148;14.068;2023-08-31T03:45:22;97569.25;;;11.98;100.00
52319;BME280;38258;51.148;14.068;2023-08-31T03:47:49;97579.72;;;11.98;100.00
52319;BME280;38258;51.148;14.068;2023-08-31T03:50:16;97567.50;;;11.97;100.00
52319;BME280;38258;51.148;14.068;2023-08-31T03:52:45;97573.63;;;11.97;100.00
52319;BME280;38258;51.148;14.068;2023-08-31T03:55:12;97575.75;;;11.89;100.00
52319;BME280;38258;51.148;14.068;2023-08-31T03:57:39;97576.19;;;11.80;100.00
52319;BME280;38258;51.148;14.068;2023-08-31T04:00:14;97579.06;;;11.73;100.00
52319;BME280;38258;51.148;14.068;2023-08-31T04:02:42;97590.56;;;11.71;100.00
52319;BME280;38258;51.148;14.068;2023-08-31T04:05:10;97586.25;;;11.70;100.00
52319;BME280;38258;51.148;14.068;2023-08-31T04:07:42;97590.69;;;11.68;100.00
52319;BME280;38258;51.148;14.068;2023-08-31T04:10:10;97590.97;;;11.62;100.00
52319;BME280;38258;51.148;14.068;2023-08-31T04:12:36;97586.59;;;11.62;100.00
52319;BME280;38258;51.148;14.068;2023-08-31T04:15:05;97583.41;;;11.55;100.00
52319;BME280;38258;51.148;14.068;2023-08-31T04:17:34;97569.84;;;11.45;100.00
52319;BME280;38258;51.148;14.068;2023-08-31T04:20:00;97580.91;;;11.52;100.00
52319;BME280;38258;51.148;14.068;2023-08-31T04:22:27;97583.88;;;11.44;100.00
52319;BME280;38258;51.148;14.068;2023-08-31T04:24:54;97589.03;;;11.46;100.00
52319;BME280;38258;51.148;14.068;2023-08-31T04:27:20;97588.91;;;11.49;100.00
52319;BME280;38258;51.148;14.068;2023-08-31T04:29:47;97586.47;;;11.44;100.00
52319;BME280;38258;51.148;14.068;2023-08-31T04:32:13;97586.63;;;11.41;100.00
52319;BME280;38258;51.148;14.068;2023-08-31T04:34:41;97592.59;;;11.45;100.00
52319;BME280;38258;51.148;14.068;2023-08-31T04:37:08;97596.81;;;11.48;100.00
52319;BME280;38258;51.148;14.068;2023-08-31T04:39:35;97601.06;;;11.50;100.00
52319;BME280;38258;51.148;14.068;2023-08-31T04:42:01;97596.75;;;11.49;100.00
52319;BME280;38258;51.148;14.068;2023-08-31T04:44:28;97590.59;;;11.50;100.00
52319;BME280;38258;51.148;14.068;2023-08-31T04:46:55;97601.66;;;11.57;100.00
52319;BME280;38258;51.148;14.068;2023-08-31T04:49:22;97604.22;;;11.58;100.00
52319;BME280;38258;51.148;14.068;2023-08-31T04:51:50;97608.72;;;11.55;100.00
52319;BME280;38258;51.148;14.068;2023-08-31T04:54:17;97604.22;;;11.58;100.00
52319;BME280;38258;51.148;14.068;2023-08-31T04:56:43;97610.16;;;11.62;100.00
52319;BME280;38258;51.148;14.068;2023-08-31T04:59:10;97617.78;;;11.67;100.00
52319;BME280;38258;51.148;14.068;2023-08-31T05:01:37;97625.66;;;11.67;100.00
52319;BME280;38258;51.148;14.068;2023-08-31T05:04:04;97619.44;;;11.69;100.00
52319;BME280;38258;51.148;14.068;2023-08-31T05:06:31;97622.78;;;11.73;100.00
52319;BME280;38258;51.148;14.068;2023-08-31T05:08:59;97624.94;;;11.82;100.00
52319;BME280;38258;51.148;14.068;2023-08-31T05:11:26;97636.78;;;11.72;100.00
52319;BME280;38258;51.148;14.068;2023-08-31T05:13:52;97632.59;;;11.68;100.00
52319;BME280;38258;51.148;14.068;2023-08-31T05:16:19;97641.16;;;11.71;100.00
52319;BME280;38258;51.148;14.068;2023-08-31T05:18:46;97646.72;;;11.84;100.00
52319;BME280;38258;51.148;14.068;2023-08-31T05:21:12;97649.34;;;11.84;100.00
52319;BME280;38258;51.148;14.068;2023-08-31T05:23:39;97650.41;;;11.99;100.00
52319;BME280;38258;51.148;14.068;2023-08-31T05:26:07;97656.09;;;12.09;100.00
52319;BME280;38258;51.148;14.068;2023-08-31T05:28:34;97658.91;;;12.05;100.00
52319;BME280;38258;51.148;14.068;2023-08-31T05:31:01;97652.91;;;12.02;100.00
52319;BME280;38258;51.148;14.068;2023-08-31T05:33:29;97652.84;;;12.04;100.00
52319;BME280;38258;51.148;14.068;2023-08-31T05:36:00;97650.94;;;12.08;100.00
52319;BME280;38258;51.148;14.068;2023-08-31T05:38:29;97650.72;;;12.12;100.00
52319;BME280;38258;51.148;14.068;2023-08-31T05:41:03;97657.88;;;12.28;100.00
52319;BME280;38258;51.148;14.068;2023-08-31T05:43:33;97662.47;;;12.23;100.00
52319;BME280;38258;51.148;14.068;2023-08-31T05:46:01;97666.97;;;12.38;100.00
52319;BME280;38258;51.148;14.068;2023-08-31T05:48:28;97665.03;;;12.24;100.00
52319;BME280;38258;51.148;14.068;2023-08-31T05:50:55;97674.84;;;12.38;100.00
52319;BME280;38258;51.148;14.068;2023-08-31T05:53:22;97676.06;;;12.50;100.00
52319;BME280;38258;51.148;14.068;2023-08-31T05:55:48;97677.47;;;12.38;100.00
52319;BME280;38258;51.148;14.068;2023-08-31T05:58:15;97679.72;;;12.46;100.00
52319;BME280;38258;51.148;14.068;2023-08-31T06:00:43;97682.69;;;12.57;100.00
52319;BME280;38258;51.148;14.068;2023-08-31T06:03:10;97686.09;;;12.59;100.00
52319;BME280;38258;51.148;14.068;2023-08-31T06:05:37;97685.25;;;12.59;100.00
52319;BME280;38258;51.148;14.068;2023-08-31T06:08:05;97681.53;;;12.46;100.00
52319;BME280;38258;51.148;14.068;2023-08-31T06:10:32;97681.38;;;12.49;100.00
52319;BME280;38258;51.148;14.068;2023-08-31T06:12:58;97684.56;;;12.36;100.00
52319;BME280;38258;51.148;14.068;2023-08-31T06:15:25;97688.47;;;12.47;100.00
52319;BME280;38258;51.148;14.068;2023-08-31T06:17:54;97682.06;;;12.52;100.00
52319;BME280;38258;51.148;14.068;2023-08-31T06:20:21;97683.69;;;12.55;100.00
52319;BME280;38258;51.148;14.068;2023-08-31T06:22:49;97682.31;;;12.65;100.00
52319;BME280;38258;51.148;14.068;2023-08-31T06:25:15;97693.91;;;12.61;100.00
52319;BME280;38258;51.148;14.068;2023-08-31T06:27:44;97691.13;;;12.64;100.00
52319;BME280;38258;51.148;14.068;2023-08-31T06:30:11;97690.03;;;12.68;100.00
52319;BME280;38258;51.148;14.068;2023-08-31T06:32:42;97682.69;;;12.94;100.00
52319;BME280;38258;51.148;14.068;2023-08-31T06:35:10;97692.97;;;12.99;100.00
52319;BME280;38258;51.148;14.068;2023-08-31T06:37:37;97697.22;;;13.01;100.00
52319;BME280;38258;51.148;14.068;2023-08-31T06:40:05;97698.16;;;13.00;100.00
52319;BME280;38258;51.148;14.068;2023-08-31T06:42:33;97706.19;;;13.15;100.00
52319;BME280;38258;51.148;14.068;2023-08-31T06:45:00;97705.09;;;13.01;100.00
52319;BME280;38258;51.148;14.068;2023-08-31T06:47:27;97710.88;;;13.08;100.00
52319;BME280;38258;51.148;14.068;2023-08-31T06:49:54;97716.53;;;13.18;100.00
52319;BME280;38258;51.148;14.068;2023-08-31T06:52:22;97719.06;;;13.20;100.00
52319;BME280;38258;51.148;14.068;2023-08-31T06:54:49;97719.16;;;13.36;100.00
52319;BME280;38258;51.148;14.068;2023-08-31T06:57:16;97719.25;;;13.34;100.00
52319;BME280;38258;51.148;14.068;2023-08-31T06:59:43;97722.09;;;13.29;100.00
52319;BME280;38258;51.148;14.068;2023-08-31T07:02:10;97725.09;;;13.39;100.00
52319;BME280;38258;51.148;14.068;2023-08-31T07:04:37;97726.72;;;13.24;100.00
52319;BME280;38258;51.148;14.068;2023-08-31T07:07:04;97728.56;;;13.22;100.00
52319;BME280;38258;51.148;14.068;2023-08-31T07:09:32;97732.13;;;13.39;100.00
52319;BME280;38258;51.148;14.068;2023-08-31T07:11:59;97730.19;;;13.25;100.00
52319;BME280;38258;51.148;14.068;2023-08-31T07:14:26;97728.75;;;13.54;100.00
52319;BME280;38258;51.148;14.068;2023-08-31T07:16:53;97728.81;;;13.70;100.00
52319;BME280;38258;51.148;14.068;2023-08-31T07:19:20;97727.84;;;13.89;100.00
52319;BME280;38258;51.148;14.068;2023-08-31T07:21:47;97732.81;;;13.95;100.00
52319;BME280;38258;51.148;14.068;2023-08-31T07:24:13;97739.19;;;14.07;100.00
52319;BME280;38258;51.148;14.068;2023-08-31T07:26:41;97741.53;;;13.96;100.00
52319;BME280;38258;51.148;14.068;2023-08-31T07:29:08;97735.91;;;13.86;100.00
52319;BME280;38258;51.148;14.068;2023-08-31T07:31:35;97749.16;;;13.84;100.00
52319;BME280;38258;51.148;14.068;2023-08-31T07:34:02;97757.00;;;14.02;100.00
52319;BME280;38258;51.148;14.068;2023-08-31T07:36:29;97746.94;;;13.93;100.00
52319;BME280;38258;51.148;14.068;2023-08-31T07:38:56;97755.38;;;13.99;100.00
52319;BME280;38258;51.148;14.068;2023-08-31T07:41:23;97752.19;;;14.26;100.00
52319;BME280;38258;51.148;14.068;2023-08-31T07:43:51;97762.53;;;14.13;100.00
52319;BME280;38258;51.148;14.068;2023-08-31T07:46:18;97744.34;;;14.59;100.00
52319;BME280;38258;51.148;14.068;2023-08-31T07:48:45;97755.38;;;14.65;100.00
52319;BME280;38258;51.148;14.068;2023-08-31T07:51:13;97753.34;;;15.03;100.00
52319;BME280;38258;51.148;14.068;2023-08-31T07:53:40;97760.06;;;14.60;100.00
52319;BME280;38258;51.148;14.068;2023-08-31T07:56:07;97764.22;;;14.96;100.00
52319;BME280;38258;51.148;14.068;2023-08-31T07:58:34;97767.03;;;14.93;100.00
52319;BME280;38258;51.148;14.068;2023-08-31T08:01:02;97762.94;;;15.04;100.00
52319;BME280;38258;51.148;14.068;2023-08-31T08:03:30;97768.41;;;15.01;100.00
52319;BME280;38258;51.148;14.068;2023-08-31T08:05:57;97767.78;;;14.95;100.00
52319;BME280;38258;51.148;14.068;2023-08-31T08:08:24;97771.09;;;14.99;100.00
52319;BME280;38258;51.148;14.068;2023-08-31T08:10:52;97775.44;;;15.16;100.00
52319;BME280;38258;51.148;14.068;2023-08-31T08:13:19;97776.63;;;16.02;100.00
52319;BME280;38258;51.148;14.068;2023-08-31T08:15:45;97773.00;;;16.76;100.00
52319;BME280;38258;51.148;14.068;2023-08-31T08:18:13;97784.44;;;17.59;100.00
52319;BME280;38258;51.148;14.068;2023-08-31T08:20:40;97771.53;;;16.57;100.00
52319;BME280;38258;51.148;14.068;2023-08-31T08:23:07;97776.66;;;16.73;100.00
52319;BME280;38258;51.148;14.068;2023-08-31T08:25:34;97778.38;;;17.16;100.00
52319;BME280;38258;51.148;14.068;2023-08-31T08:28:00;97783.50;;;16.90;100.00
52319;BME280;38258;51.148;14.068;2023-08-31T08:30:28;97773.03;;;16.89;100.00
52319;BME280;38258;51.148;14.068;2023-08-31T08:32:55;97782.31;;;15.80;100.00
52319;BME280;38258;51.148;14.068;2023-08-31T08:35:24;97789.97;;;16.28;100.00
52319;BME280;38258;51.148;14.068;2023-08-31T08:37:51;97788.63;;;16.79;100.00
52319;BME280;38258;51.148;14.068;2023-08-31T08:40:18;97782.16;;;15.97;100.00
52319;BME280;38258;51.148;14.068;2023-08-31T08:42:46;97784.34;;;16.49;100.00
52319;BME280;38258;51.148;14.068;2023-08-31T08:45:14;97786.91;;;16.21;100.00
52319;BME280;38258;51.148;14.068;2023-08-31T08:47:43;97792.56;;;17.28;100.00
52319;BME280;38258;51.148;14.068;2023-08-31T08:50:10;97789.06;;;16.15;100.00
52319;BME280;38258;51.148;14.068;2023-08-31T08:52:39;97804.28;;;15.95;100.00
52319;BME280;38258;51.148;14.068;2023-08-31T08:55:08;97784.53;;;17.70;99.06
52319;BME280;38258;51.148;14.068;2023-08-31T08:57:35;97785.38;;;16.46;100.00
52319;BME280;38258;51.148;14.068;2023-08-31T09:00:02;97801.22;;;15.72;100.00
52319;BME280;38258;51.148;14.068;2023-08-31T09:02:30;97799.56;;;15.86;100.00
52319;BME280;38258;51.148;14.068;2023-08-31T09:04:57;97798.25;;;16.80;97.46
52319;BME280;38258;51.148;14.068;2023-08-31T09:07:24;97793.06;;;18.27;95.88
52319;BME280;38258;51.148;14.068;2023-08-31T09:12:27;97787.09;;;18.62;81.21
52319;BME280;38258;51.148;14.068;2023-08-31T09:14:58;97795.25;;;18.97;80.45
52319;BME280;38258;51.148;14.068;2023-08-31T09:17:25;97804.19;;;17.66;87.79
52319;BME280;38258;51.148;14.068;2023-08-31T09:19:59;97799.44;;;16.89;90.79
52319;BME280;38258;51.148;14.068;2023-08-31T09:22:26;97801.84;;;17.21;90.87
52319;BME280;38258;51.148;14.068;2023-08-31T09:24:53;97799.59;;;17.95;84.13
52319;BME280;38258;51.148;14.068;2023-08-31T09:27:20;97801.34;;;18.22;80.34
52319;BME280;38258;51.148;14.068;2023-08-31T09:29:49;97800.66;;;17.93;80.24
52319;BME280;38258;51.148;14.068;2023-08-31T09:32:16;97801.94;;;18.65;75.06
52319;BME280;38258;51.148;14.068;2023-08-31T09:34:43;97805.16;;;17.78;74.77
52319;BME280;38258;51.148;14.068;2023-08-31T09:37:10;97811.34;;;17.10;81.96
52319;BME280;38258;51.148;14.068;2023-08-31T09:39:37;97809.34;;;18.60;73.79
52319;BME280;38258;51.148;14.068;2023-08-31T09:42:05;97801.44;;;19.46;70.98
52319;BME280;38258;51.148;14.068;2023-08-31T09:44:32;97812.16;;;19.69;69.93
52319;BME280;38258;51.148;14.068;2023-08-31T09:47:00;97806.38;;;18.64;74.15
52319;BME280;38258;51.148;14.068;2023-08-31T09:49:29;97817.69;;;19.41;69.33
52319;BME280;38258;51.148;14.068;2023-08-31T09:51:58;97825.19;;;17.95;75.41
52319;BME280;38258;51.148;14.068;2023-08-31T09:54:29;97819.94;;;17.55;86.70
52319;BME280;38258;51.148;14.068;2023-08-31T09:56:58;97822.69;;;17.26;85.90
52319;BME280;38258;51.148;14.068;2023-08-31T09:59:26;97818.81;;;17.72;83.08
52319;BME280;38258;51.148;14.068;2023-08-31T10:01:54;97803.88;;;19.00;77.71
52319;BME280;38258;51.148;14.068;2023-08-31T10:04:23;97809.34;;;19.59;73.04
52319;BME280;38258;51.148;14.068;2023-08-31T10:06:51;97813.34;;;18.65;76.23
52319;BME280;38258;51.148;14.068;2023-08-31T10:09:19;97825.22;;;18.73;73.08
52319;BME280;38258;51.148;14.068;2023-08-31T10:11:46;97822.81;;;19.91;69.78
52319;BME280;38258;51.148;14.068;2023-08-31T10:14:13;97817.13;;;20.43;68.00
52319;BME280;38258;51.148;14.068;2023-08-31T10:16:43;97811.22;;;20.40;66.92
52319;BME280;38258;51.148;14.068;2023-08-31T10:19:11;97816.41;;;20.41;64.39
52319;BME280;38258;51.148;14.068;2023-08-31T10:21:40;97818.81;;;19.50;66.95
52319;BME280;38258;51.148;14.068;2023-08-31T10:24:07;97816.34;;;20.07;66.55
52319;BME280;38258;51.148;14.068;2023-08-31T10:26:33;97818.66;;;20.12;63.14
52319;BME280;38258;51.148;14.068;2023-08-31T10:29:00;97816.50;;;18.84;68.48
52319;BME280;38258;51.148;14.068;2023-08-31T10:31:29;97836.38;;;18.13;76.16
52319;BME280;38258;51.148;14.068;2023-08-31T10:33:58;97838.53;;;17.26;78.79
52319;BME280;38258;51.148;14.068;2023-08-31T10:36:35;97834.97;;;17.67;80.39
52319;BME280;38258;51.148;14.068;2023-08-31T10:39:10;97838.94;;;17.74;82.51
52319;BME280;38258;51.148;14.068;2023-08-31T10:41:37;97831.78;;;18.54;76.81
52319;BME280;38258;51.148;14.068;2023-08-31T10:44:18;97823.53;;;19.58;71.59
52319;BME280;38258;51.148;14.068;2023-08-31T10:46:46;97829.41;;;19.50;70.68
52319;BME280;38258;51.148;14.068;2023-08-31T10:49:14;97823.94;;;19.40;69.43
52319;BME280;38258;51.148;14.068;2023-08-31T10:51:42;97820.13;;;17.92;74.28
52319;BME280;38258;51.148;14.068;2023-08-31T10:54:12;97820.06;;;18.45;75.25
52319;BME280;38258;51.148;14.068;2023-08-31T10:57:02;97827.97;;;17.93;77.74
52319;BME280;38258;51.148;14.068;2023-08-31T10:59:46;97824.78;;;18.01;79.64
52319;BME280;38258;51.148;14.068;2023-08-31T11:02:34;97828.88;;;17.66;80.13
52319;BME280;38258;51.148;14.068;2023-08-31T11:05:09;97829.25;;;16.91;88.12
52319;BME280;38258;51.148;14.068;2023-08-31T11:07:37;97819.06;;;19.23;78.23
52319;BME280;38258;51.148;14.068;2023-08-31T11:10:12;97815.22;;;19.27;72.36
52319;BME280;38258;51.148;14.068;2023-08-31T11:12:40;97813.47;;;19.99;68.02
52319;BME280;38258;51.148;14.068;2023-08-31T11:15:08;97810.63;;;18.41;72.61
52319;BME280;38258;51.148;14.068;2023-08-31T11:17:36;97803.66;;;19.63;71.51
52319;BME280;38258;51.148;14.068;2023-08-31T11:20:08;97804.78;;;20.08;59.70
52319;BME280;38258;51.148;14.068;2023-08-31T11:22:38;97803.94;;;20.99;57.78
52319;BME280;38258;51.148;14.068;2023-08-31T11:25:06;97800.69;;;19.68;59.20
52319;BME280;38258;51.148;14.068;2023-08-31T11:27:34;97810.78;;;18.77;62.42
52319;BME280;38258;51.148;14.068;2023-08-31T11:30:03;97825.22;;;18.73;63.73
52319;BME280;38258;51.148;14.068;2023-08-31T11:32:30;97825.72;;;17.74;67.54
52319;BME280;38258;51.148;14.068;2023-08-31T11:34:56;97829.53;;;17.15;72.24
52319;BME280;38258;51.148;14.068;2023-08-31T11:37:23;97856.03;;;17.14;76.28
52319;BME280;38258;51.148;14.068;2023-08-31T11:39:50;97874.63;;;15.64;92.84
52319;BME280;38258;51.148;14.068;2023-08-31T11:42:18;97861.47;;;15.78;98.58
52319;BME280;38258;51.148;14.068;2023-08-31T11:44:48;97871.41;;;15.26;99.20
52319;BME280;38258;51.148;14.068;2023-08-31T11:47:15;97884.78;;;15.70;100.00
52319;BME280;38258;51.148;14.068;2023-08-31T11:49:42;97885.44;;;15.27;100.00
52319;BME280;38258;51.148;14.068;2023-08-31T11:52:10;97882.34;;;15.67;100.00
52319;BME280;38258;51.148;14.068;2023-08-31T11:54:38;97890.34;;;15.65;100.00
52319;BME280;38258;51.148;14.068;2023-08-31T11:57:06;97882.53;;;15.64;100.00
52319;BME280;38258;51.148;14.068;2023-08-31T11:59:34;97880.75;;;15.32;100.00
52319;BME280;38258;51.148;14.068;2023-08-31T12:02:05;97872.09;;;16.96;94.87
52319;BME280;38258;51.148;14.068;2023-08-31T12:04:32;97872.72;;;15.82;94.97
52319;BME280;38258;51.148;14.068;2023-08-31T12:07:02;97881.91;;;15.91;96.41
52319;BME280;38258;51.148;14.068;2023-08-31T12:09:30;97878.06;;;15.34;97.71
52319;BME280;38258;51.148;14.068;2023-08-31T12:11:57;97884.00;;;15.21;96.63
52319;BME280;38258;51.148;14.068;2023-08-31T12:14:26;97882.47;;;15.33;95.94
52319;BME280;38258;51.148;14.068;2023-08-31T12:17:00;97887.75;;;15.17;99.14
52319;BME280;38258;51.148;14.068;2023-08-31T12:19:29;97882.41;;;15.03;100.00
52319;BME280;38258;51.148;14.068;2023-08-31T12:21:57;97860.28;;;15.84;100.00
52319;BME280;38258;51.148;14.068;2023-08-31T12:24:24;97862.13;;;15.67;99.77
52319;BME280;38258;51.148;14.068;2023-08-31T12:26:51;97856.81;;;16.29;95.82
52319;BME280;38258;51.148;14.068;2023-08-31T12:29:19;97844.50;;;16.73;85.29
52319;BME280;38258;51.148;14.068;2023-08-31T12:31:46;97850.59;;;16.88;90.81
52319;BME280;38258;51.148;14.068;2023-08-31T12:34:13;97855.31;;;16.82;86.33
52319;BME280;38258;51.148;14.068;2023-08-31T12:36:41;97851.81;;;16.82;83.17
52319;BME280;38258;51.148;14.068;2023-08-31T12:39:08;97846.34;;;16.42;83.89
52319;BME280;38258;51.148;14.068;2023-08-31T12:41:36;97844.84;;;16.81;83.82
52319;BME280;38258;51.148;14.068;2023-08-31T12:44:03;97837.84;;;17.64;77.53
52319;BME280;38258;51.148;14.068;2023-08-31T12:46:30;97835.44;;;19.28;72.71
52319;BME280;38258;51.148;14.068;2023-08-31T12:48:59;97850.97;;;18.19;69.25
52319;BME280;38258;51.148;14.068;2023-08-31T12:51:26;97845.44;;;18.74;67.72